Terminal Aerodrome Forecast
Issued by NWS

Home | Current Version | Previous Version | Text Only | Print | Product List | Glossary On
Versions: 1 2 3 4 5 6 7 8 9 10 11 12 13 14
000
FTUS46 KMTR 010538
TAFSJC
TAF
KSJC 010538Z 0106/0206 32004KT P6SM SCT160 BKN200
     FM011000 VRB03KT P6SM FEW010 FEW200
     FM012100 31009KT P6SM SCT200
     FM020500 26005KT P6SM SCT200=

USA.gov is the U.S. government's official web portal to all federal, state and local government web resources and services.